Time;durP1;ratioP1;P1;durP2;ratioP2;P2;SDS_P1;SDS_P2;PMS_P1;PMS_P2;Temp;Humidity;BMP_temperature;BMP_pressure;BME280_temperature;BME280_humidity;BME280_pressure;Samples;Min_cycle;Max_cycle;Signal;HPM_P1;HPM_P2
2023/10/19 00:01:25;;;;;;;;;;;13.20;65.40;;;8.57;100.00;94166.59;4968770;28;19916;-46
2023/10/19 00:03:55;;;;;;;;;;;13.20;65.50;;;8.60;100.00;94159.94;4971140;28;19914;-46
2023/10/19 00:06:23;;;;;;;;;;;13.30;65.60;;;8.62;100.00;94157.00;4971607;28;19968;-46
2023/10/19 00:08:52;;;;;;;;;;;13.30;65.60;;;8.64;100.00;94160.94;4967952;28;19920;-46
2023/10/19 00:11:22;;;;;;;;;;;13.30;65.60;;;8.65;100.00;94156.41;4965464;28;19944;-50
2023/10/19 00:13:51;;;;;;;;;;;13.40;65.60;;;8.67;100.00;94148.97;4968657;28;20372;-46
2023/10/19 00:16:17;;;;;;;;;;;13.40;65.60;;;8.66;100.00;94144.75;4972098;28;20368;-46
2023/10/19 00:18:45;;;;;;;;;;;13.40;65.60;;;8.67;100.00;94133.81;4971478;28;19972;-46
2023/10/19 00:21:19;;;;;;;;;;;13.40;65.50;;;8.70;100.00;94138.56;4974900;28;20088;-50
2023/10/19 00:23:50;;;;;;;;;;;13.40;65.60;;;8.74;100.00;94139.59;4974189;28;20019;-46
2023/10/19 00:26:19;;;;;;;;;;;13.40;65.60;;;8.76;100.00;94139.28;4972016;28;20384;-46
2023/10/19 00:28:49;;;;;;;;;;;13.40;65.60;;;8.75;100.00;94138.50;4974162;28;20357;-48
2023/10/19 00:31:15;;;;;;;;;;;13.50;65.60;;;8.75;100.00;94133.19;4972178;28;19909;-48
2023/10/19 00:33:41;;;;;;;;;;;13.50;65.60;;;8.78;100.00;94129.97;4974255;28;20261;-52
2023/10/19 00:36:13;;;;;;;;;;;13.50;65.70;;;8.81;100.00;94128.59;4974449;28;20028;-47
2023/10/19 00:41:29;;;;;;;;;;;13.50;65.60;;;8.80;100.00;94129.66;4974836;28;19963;-49
2023/10/19 00:44:42;;;;;;;;;;;13.50;65.60;;;8.81;100.00;94139.22;4965774;28;19920;-49
2023/10/19 00:46:50;;;;;;;;;;;13.60;65.70;;;8.83;100.00;94137.03;4971399;28;19957;-48
2023/10/19 00:49:16;;;;;;;;;;;13.60;65.70;;;8.84;100.00;94133.34;4971241;28;20365;-47
2023/10/19 00:54:35;;;;;;;;;;;13.60;65.60;;;8.87;100.00;94123.97;4988850;28;19916;-47
2023/10/19 00:57:08;;;;;;;;;;;13.60;65.60;;;8.89;100.00;94113.88;4973792;28;20173;-51
2023/10/19 01:00:35;;;;;;;;;;;13.70;65.70;;;8.88;100.00;94123.69;4987832;28;19944;-48
2023/10/19 01:02:29;;;;;;;;;;;13.60;65.60;;;8.88;100.00;94115.75;4967653;28;19941;-48
2023/10/19 01:05:00;;;;;;;;;;;13.70;65.60;;;8.89;100.00;94104.03;4973633;28;19995;-46
2023/10/19 01:07:29;;;;;;;;;;;13.70;65.60;;;8.84;100.00;94100.66;4963197;28;19909;-46
2023/10/19 01:12:59;;;;;;;;;;;13.60;65.50;;;8.86;100.00;94104.59;4945065;28;20021;-50
2023/10/19 01:17:58;;;;;;;;;;;13.60;65.60;;;8.80;100.00;94100.44;4954629;28;20423;-48
2023/10/19 01:25:59;;;;;;;;;;;13.60;65.80;;;8.93;100.00;94085.66;4992497;28;20382;-45
2023/10/19 01:31:16;;;;;;;;;;;13.60;65.90;;;8.93;100.00;94085.66;4992588;28;19917;-44
2023/10/19 01:33:47;;;;;;;;;;;13.60;65.90;;;8.94;100.00;94080.06;4992945;28;20383;-43
2023/10/19 01:38:53;;;;;;;;;;;13.60;66.00;;;8.95;100.00;94081.63;4991683;28;19909;-44
2023/10/19 01:41:19;;;;;;;;;;;13.70;66.00;;;8.96;100.00;94085.06;4991614;28;20395;-45
2023/10/19 01:43:48;;;;;;;;;;;13.60;65.90;;;8.99;100.00;94090.63;4992037;28;20264;-44
2023/10/19 01:46:24;;;;;;;;;;;13.70;65.90;;;8.97;100.00;94090.09;4992859;28;19913;-44
2023/10/19 01:48:55;;;;;;;;;;;13.70;65.90;;;9.01;100.00;94077.81;4991090;28;19920;-45
2023/10/19 01:51:25;;;;;;;;;;;13.70;65.90;;;9.01;100.00;94066.41;4992886;28;19913;-45
2023/10/19 01:53:51;;;;;;;;;;;13.70;65.90;;;9.04;100.00;94068.47;4992400;28;20510;-46
2023/10/19 01:56:18;;;;;;;;;;;13.70;65.90;;;9.07;100.00;94064.47;4991831;28;19921;-47
2023/10/19 01:58:46;;;;;;;;;;;13.80;66.00;;;9.07;100.00;94069.78;4992085;28;20063;-43
2023/10/19 02:03:44;;;;;;;;;;;13.80;65.90;;;9.03;100.00;94045.66;4992406;28;20425;-46
2023/10/19 02:06:19;;;;;;;;;;;13.80;65.90;;;9.07;100.00;94051.19;4992514;28;20008;-45
2023/10/19 02:09:09;;;;;;;;;;;13.80;65.90;;;9.09;100.00;94041.03;4990896;28;19916;-48
2023/10/19 02:11:37;;;;;;;;;;;13.80;65.90;;;9.10;100.00;94040.75;4991144;28;19909;-44
2023/10/19 02:14:13;;;;;;;;;;;13.80;65.90;;;9.11;100.00;94052.94;4991216;28;19970;-48
2023/10/19 02:16:43;;;;;;;;;;;13.80;66.00;;;9.14;100.00;94051.59;4992093;28;20368;-44
2023/10/19 02:19:10;;;;;;;;;;;13.80;66.10;;;9.12;100.00;94049.22;4990841;28;19909;-48
2023/10/19 02:21:40;;;;;;;;;;;13.80;66.90;;;9.16;100.00;94044.13;4992040;28;19917;-45
2023/10/19 02:24:14;;;;;;;;;;;13.80;66.00;;;9.20;100.00;94029.16;4991602;28;19952;-46
2023/10/19 02:26:44;;;;;;;;;;;13.90;66.10;;;9.21;100.00;94009.47;4989603;28;19909;-50
2023/10/19 02:29:10;;;;;;;;;;;13.90;66.10;;;9.17;100.00;93993.34;4992127;28;20004;-46
2023/10/19 02:31:38;;;;;;;;;;;13.90;66.00;;;9.19;100.00;93996.50;4991425;28;19963;-46
2023/10/19 02:34:04;;;;;;;;;;;13.90;66.00;;;9.19;100.00;93988.53;4992068;28;19909;-44
2023/10/19 02:36:32;;;;;;;;;;;13.90;66.60;;;9.20;100.00;93976.81;4990140;28;19914;-49
2023/10/19 02:39:00;;;;;;;;;;;13.90;66.10;;;9.23;100.00;94021.38;4990224;28;19917;-47
2023/10/19 02:41:28;;;;;;;;;;;13.90;66.20;;;9.24;100.00;94032.78;4992538;28;19932;-44
2023/10/19 02:46:38;;;;;;;;;;;13.90;66.40;;;9.32;100.00;94032.13;4991894;28;19932;-46
2023/10/19 02:49:13;;;;;;;;;;;13.90;66.40;;;9.37;100.00;94037.34;4990133;28;20344;-47
2023/10/19 02:51:44;;;;;;;;;;;13.90;66.40;;;9.36;100.00;94033.09;4991877;28;19916;-47
2023/10/19 02:54:19;;;;;;;;;;;13.90;66.40;;;9.40;100.00;94035.97;4992008;28;19916;-43
2023/10/19 02:56:51;;;;;;;;;;;14.00;66.50;;;9.41;100.00;94033.03;4991063;28;19913;-50
2023/10/19 02:59:23;;;;;;;;;;;14.00;66.40;;;9.43;100.00;94030.06;4991146;28;19983;-44
2023/10/19 03:04:37;;;;;;;;;;;14.10;66.30;;;9.43;100.00;94011.44;4991456;28;20004;-44
2023/10/19 03:07:10;;;;;;;;;;;14.10;67.20;;;9.42;100.00;94012.53;4989402;28;19960;-44
2023/10/19 03:09:36;;;;;;;;;;;14.10;66.30;;;9.42;100.00;94016.00;4989574;28;20011;-52
2023/10/19 03:12:04;;;;;;;;;;;14.10;66.20;;;9.44;100.00;94013.84;4990599;28;20012;-45
2023/10/19 03:14:30;;;;;;;;;;;14.10;66.20;;;9.45;100.00;94010.09;4990681;28;19910;-44
2023/10/19 03:16:59;;;;;;;;;;;14.10;66.20;;;9.44;100.00;94010.41;4991853;28;19919;-46
2023/10/19 03:19:26;;;;;;;;;;;14.10;66.20;;;9.45;100.00;94003.97;4989797;28;20019;-45
2023/10/19 03:21:59;;;;;;;;;;;14.10;66.10;;;9.39;100.00;93997.97;4989919;28;20272;-44
2023/10/19 03:27:18;;;;;;;;;;;14.10;66.10;;;9.35;100.00;93996.22;4991445;28;20272;-45
2023/10/19 03:29:47;;;;;;;;;;;14.10;66.10;;;9.37;100.00;93999.34;4990752;28;19910;-43
2023/10/19 03:32:17;;;;;;;;;;;14.10;66.20;;;9.37;100.00;93994.84;4990818;28;19916;-45
2023/10/19 03:34:47;;;;;;;;;;;14.10;66.30;;;9.32;100.00;93997.59;4991158;28;19913;-44
2023/10/19 03:37:14;;;;;;;;;;;14.00;66.20;;;9.33;100.00;93983.22;4990426;28;19913;-44
2023/10/19 03:39:41;;;;;;;;;;;14.00;66.30;;;9.35;100.00;93980.28;5002801;28;20009;-45
2023/10/19 03:42:13;;;;;;;;;;;14.00;66.20;;;9.33;100.00;93979.75;4991596;28;19913;-43
2023/10/19 03:47:12;;;;;;;;;;;14.00;66.20;;;9.32;100.00;93976.31;4991714;28;20360;-44
2023/10/19 03:49:39;;;;;;;;;;;14.00;66.20;;;9.30;100.00;93975.81;4989474;28;19910;-44
2023/10/19 03:54:40;;;;;;;;;;;14.00;66.30;;;9.31;100.00;93974.75;4994175;28;19909;-45
2023/10/19 03:57:19;;;;;;;;;;;14.00;66.30;;;9.29;100.00;93968.94;4988346;28;19917;-46
2023/10/19 03:59:52;;;;;;;;;;;14.00;66.40;;;9.36;100.00;93969.34;4994353;28;19910;-49
2023/10/19 04:02:20;;;;;;;;;;;14.00;66.40;;;9.35;100.00;93961.66;4992833;28;20003;-44
2023/10/19 04:04:48;;;;;;;;;;;14.00;66.60;;;9.40;100.00;93956.22;4994758;28;19909;-46
2023/10/19 04:07:21;;;;;;;;;;;14.00;66.60;;;9.44;100.00;93949.25;5007074;28;19914;-45
2023/10/19 04:12:41;;;;;;;;;;;14.00;66.60;;;9.44;100.00;93950.06;4994635;28;19932;-48
2023/10/19 04:15:17;;;;;;;;;;;14.10;66.60;;;9.46;100.00;93947.06;4987213;28;20024;-45
2023/10/19 04:17:48;;;;;;;;;;;14.10;66.60;;;9.47;100.00;93949.47;4994791;28;19913;-44
2023/10/19 04:22:50;;;;;;;;;;;14.10;67.30;;;9.48;100.00;93937.72;4994676;28;20276;-44
2023/10/19 04:25:20;;;;;;;;;;;14.20;66.50;;;9.48;100.00;93937.72;4993404;28;20008;-46
2023/10/19 04:27:48;;;;;;;;;;;14.10;66.40;;;9.51;100.00;93944.31;4994560;28;20008;-49
2023/10/19 04:30:15;;;;;;;;;;;14.10;66.50;;;9.50;100.00;93938.22;4993742;28;19939;-44
2023/10/19 04:32:46;;;;;;;;;;;14.20;66.50;;;9.52;100.00;93948.56;4993548;28;19955;-47
2023/10/19 04:35:21;;;;;;;;;;;14.20;66.50;;;9.54;100.00;93941.06;4994247;28;19918;-45
2023/10/19 04:37:51;;;;;;;;;;;14.20;66.50;;;9.53;100.00;93938.69;4993507;28;19936;-45
2023/10/19 04:40:18;;;;;;;;;;;14.20;66.50;;;9.56;100.00;93927.47;4993939;28;19956;-48
2023/10/19 04:42:46;;;;;;;;;;;14.20;66.50;;;9.58;100.00;93933.28;4993476;28;20374;-47
2023/10/19 04:45:12;;;;;;;;;;;14.30;66.50;;;9.56;100.00;93920.31;4994084;28;19932;-44
2023/10/19 04:47:39;;;;;;;;;;;14.30;66.50;;;9.57;100.00;93923.75;4994067;28;20290;-46
2023/10/19 04:50:06;;;;;;;;;;;14.30;66.40;;;9.57;100.00;93919.22;4992630;28;20292;-44
2023/10/19 04:52:33;;;;;;;;;;;14.30;66.40;;;9.59;100.00;93914.41;4994357;28;19968;-45
2023/10/19 04:55:01;;;;;;;;;;;14.30;66.40;;;9.61;100.00;93920.19;4993072;28;19916;-44
2023/10/19 04:57:27;;;;;;;;;;;14.30;66.40;;;9.63;100.00;93918.03;4994389;28;20340;-44
2023/10/19 04:59:53;;;;;;;;;;;14.30;66.40;;;9.62;100.00;93908.50;4993251;28;20368;-46
2023/10/19 05:02:19;;;;;;;;;;;14.30;66.40;;;9.61;100.00;93906.91;4992662;28;20012;-45
2023/10/19 05:04:47;;;;;;;;;;;14.30;66.30;;;9.60;100.00;93899.22;4992360;28;20471;-45
2023/10/19 05:07:17;;;;;;;;;;;14.30;66.30;;;9.61;100.00;93898.91;4993285;28;19921;-44
2023/10/19 05:09:46;;;;;;;;;;;14.30;66.40;;;9.63;100.00;93898.63;4992962;28;19921;-44
2023/10/19 05:12:14;;;;;;;;;;;14.30;66.50;;;9.63;100.00;93883.47;4990174;28;20380;-47
2023/10/19 05:14:42;;;;;;;;;;;14.30;66.50;;;9.61;100.00;93888.28;4992452;28;19909;-47
2023/10/19 05:17:09;;;;;;;;;;;14.30;66.50;;;9.58;100.00;93885.44;4992405;28;20284;-43
2023/10/19 05:19:37;;;;;;;;;;;14.30;66.60;;;9.58;100.00;93886.22;4987689;28;19913;-46
2023/10/19 05:22:07;;;;;;;;;;;14.30;66.50;;;9.61;100.00;93887.50;4993909;28;20009;-47
2023/10/19 05:24:33;;;;;;;;;;;14.30;66.60;;;9.63;100.00;93883.47;4993550;28;20334;-48
2023/10/19 05:26:59;;;;;;;;;;;14.30;66.60;;;9.64;100.00;93879.72;4992963;28;19924;-44
2023/10/19 05:29:25;;;;;;;;;;;14.30;66.60;;;9.65;100.00;93878.66;4992890;28;19910;-49
2023/10/19 05:31:57;;;;;;;;;;;14.30;66.60;;;9.65;100.00;93875.19;4992289;28;19917;-45
2023/10/19 05:34:26;;;;;;;;;;;14.30;66.60;;;9.66;100.00;93874.13;4993240;28;20380;-46
2023/10/19 05:36:54;;;;;;;;;;;14.30;66.60;;;9.67;100.00;93873.78;4989096;28;19921;-46
2023/10/19 05:39:20;;;;;;;;;;;14.40;66.60;;;9.67;100.00;93870.34;4990819;28;20291;-52
2023/10/19 05:41:46;;;;;;;;;;;14.40;66.60;;;9.67;100.00;93871.13;4992526;28;19916;-43
2023/10/19 05:44:13;;;;;;;;;;;14.40;66.60;;;9.67;100.00;93865.81;4990933;28;19917;-45
2023/10/19 05:46:40;;;;;;;;;;;14.40;66.60;;;9.70;100.00;93865.22;4991190;28;19917;-45
2023/10/19 05:49:06;;;;;;;;;;;14.40;66.60;;;9.72;100.00;93855.09;4989942;28;19940;-43
2023/10/19 05:51:32;;;;;;;;;;;14.40;66.60;;;9.73;100.00;93851.31;4991659;28;19928;-45
2023/10/19 05:54:04;;;;;;;;;;;14.40;66.60;;;9.77;100.00;93854.16;4992531;28;19921;-44
2023/10/19 05:56:36;;;;;;;;;;;14.40;66.60;;;9.80;100.00;93858.88;4989788;28;20015;-44
2023/10/19 05:59:02;;;;;;;;;;;14.40;66.70;;;9.80;100.00;93856.22;4991690;28;19909;-45
2023/10/19 06:01:28;;;;;;;;;;;14.50;66.80;;;9.85;100.00;93855.34;4991204;28;19936;-44
2023/10/19 06:03:54;;;;;;;;;;;14.50;66.80;;;9.87;100.00;93845.97;4991219;28;20012;-44
2023/10/19 06:06:20;;;;;;;;;;;14.50;66.80;;;9.90;100.00;93845.38;4988881;28;20364;-45
2023/10/19 06:08:46;;;;;;;;;;;14.60;66.90;;;9.94;100.00;93843.69;4990711;28;19913;-47
2023/10/19 06:11:13;;;;;;;;;;;14.60;66.80;;;9.98;100.00;93843.84;4991119;28;19959;-48
2023/10/19 06:13:39;;;;;;;;;;;14.60;66.80;;;10.02;100.00;93846.69;4986402;28;19913;-47
2023/10/19 06:16:05;;;;;;;;;;;14.70;66.80;;;10.06;100.00;93847.66;4991138;28;19913;-47
2023/10/19 06:18:31;;;;;;;;;;;14.80;66.90;;;10.09;100.00;93847.84;4991044;28;19959;-50
2023/10/19 06:20:57;;;;;;;;;;;14.80;66.80;;;10.14;100.00;93850.38;4989174;28;19945;-44
2023/10/19 06:23:23;;;;;;;;;;;14.80;66.70;;;10.22;100.00;93851.53;4989787;28;19944;-47
2023/10/19 06:25:51;;;;;;;;;;;15.00;66.90;;;10.29;100.00;93849.25;4990556;28;20745;-46
2023/10/19 06:28:17;;;;;;;;;;;15.00;66.90;;;10.36;100.00;93854.91;4990974;28;20366;-46
2023/10/19 06:30:43;;;;;;;;;;;15.10;66.90;;;10.37;100.00;93848.53;4987851;28;19914;-44
2023/10/19 06:33:09;;;;;;;;;;;15.20;66.90;;;10.43;100.00;93851.81;4991570;28;19910;-45
2023/10/19 06:35:37;;;;;;;;;;;15.20;66.70;;;10.49;100.00;93850.59;4991413;28;19917;-45
2023/10/19 06:38:03;;;;;;;;;;;15.30;66.70;;;10.55;100.00;93854.69;4990368;28;19913;-45
2023/10/19 06:40:30;;;;;;;;;;;15.30;66.70;;;10.57;100.00;93846.44;4991567;28;19915;-45
2023/10/19 06:42:58;;;;;;;;;;;15.30;66.70;;;10.61;100.00;93839.38;4991414;28;19964;-44
2023/10/19 06:45:25;;;;;;;;;;;15.30;66.70;;;10.65;100.00;93835.81;4992255;28;19913;-44
2023/10/19 06:47:52;;;;;;;;;;;15.40;66.70;;;10.68;100.00;93834.41;4991898;28;20027;-44
2023/10/19 06:50:20;;;;;;;;;;;15.40;66.60;;;10.72;100.00;93835.38;4990520;28;20334;-45
2023/10/19 06:52:47;;;;;;;;;;;15.50;66.70;;;10.75;100.00;93824.09;4991824;28;20343;-51
2023/10/19 06:55:19;;;;;;;;;;;15.50;66.60;;;10.77;100.00;93837.09;4990779;28;20063;-47
2023/10/19 06:57:52;;;;;;;;;;;15.60;66.60;;;10.80;100.00;93834.59;4991023;28;19968;-47
2023/10/19 07:00:22;;;;;;;;;;;15.60;66.50;;;10.82;100.00;93831.66;5006461;28;19909;-47
2023/10/19 07:02:52;;;;;;;;;;;15.60;66.40;;;10.83;100.00;93839.31;4990879;28;20282;-47
2023/10/19 07:05:23;;;;;;;;;;;15.70;67.20;;;10.87;100.00;93836.81;4991873;28;19960;-46
2023/10/19 07:07:52;;;;;;;;;;;15.70;66.40;;;10.90;100.00;93828.22;4990960;28;19945;-45
2023/10/19 07:10:19;;;;;;;;;;;15.70;66.30;;;10.94;100.00;93836.41;4991118;28;20371;-50
2023/10/19 07:12:51;;;;;;;;;;;15.80;66.30;;;10.97;100.00;93823.25;5000437;28;19936;-48
2023/10/19 07:15:19;;;;;;;;;;;15.90;66.30;;;10.93;100.00;93829.47;4991551;28;20367;-47
2023/10/19 07:17:46;;;;;;;;;;;15.90;66.10;;;10.96;100.00;93820.88;4991848;28;20295;-45
2023/10/19 07:20:36;;;;;;;;;;;16.00;66.10;;;11.05;100.00;93827.78;4989778;28;19932;-46
2023/10/19 07:23:21;;;;;;;;;;;16.10;66.10;;;11.16;100.00;93830.97;4991679;28;19910;-49
2023/10/19 07:25:59;;;;;;;;;;;16.10;66.00;;;11.24;100.00;93829.41;4992508;28;19909;-47
2023/10/19 07:28:26;;;;;;;;;;;16.20;66.00;;;11.30;100.00;93831.59;4995395;28;20047;-45
2023/10/19 07:30:53;;;;;;;;;;;16.30;65.90;;;11.35;100.00;93833.34;4977100;28;19952;-44
2023/10/19 07:33:19;;;;;;;;;;;16.40;65.90;;;11.46;100.00;93839.16;4995530;28;19909;-47
2023/10/19 07:35:59;;;;;;;;;;;16.50;65.80;;;11.56;100.00;93826.34;4995388;28;20331;-46
2023/10/19 07:38:28;;;;;;;;;;;16.60;65.70;;;11.65;100.00;93828.19;4994692;28;19925;-48
2023/10/19 07:40:54;;;;;;;;;;;16.70;65.70;;;11.73;100.00;93824.75;4993680;28;19920;-54
2023/10/19 07:43:21;;;;;;;;;;;16.80;65.60;;;11.79;100.00;93826.97;4994578;28;19913;-53
2023/10/19 07:45:47;;;;;;;;;;;16.90;65.50;;;11.88;100.00;93820.88;5003761;23;20387;-52
2023/10/19 07:48:14;;;;;;;;;;;17.00;65.50;;;11.94;100.00;93811.56;4989716;28;19925;-51
2023/10/19 07:50:42;;;;;;;;;;;17.00;65.30;;;12.01;100.00;93815.34;4982842;28;19996;-54
2023/10/19 07:53:09;;;;;;;;;;;17.10;65.40;;;12.10;100.00;93817.25;4993490;28;20380;-52
2023/10/19 07:55:37;;;;;;;;;;;17.20;65.40;;;12.10;100.00;93823.34;4986139;28;19963;-55
2023/10/19 07:58:03;;;;;;;;;;;17.20;65.30;;;12.15;100.00;93828.50;4993107;28;19909;-49
2023/10/19 08:00:29;;;;;;;;;;;17.30;65.30;;;12.20;100.00;93817.69;4986686;28;20020;-51
2023/10/19 08:02:56;;;;;;;;;;;17.30;65.20;;;12.26;100.00;93804.97;4986408;28;20260;-52
2023/10/19 08:05:22;;;;;;;;;;;17.40;65.10;;;12.30;100.00;93807.78;4994048;28;19913;-52
2023/10/19 08:07:48;;;;;;;;;;;17.50;65.10;;;12.36;100.00;93807.28;4989276;28;19909;-50
2023/10/19 08:10:18;;;;;;;;;;;17.60;65.00;;;12.47;100.00;93805.03;4994236;28;20011;-56
2023/10/19 08:12:48;;;;;;;;;;;17.80;64.90;;;12.62;100.00;93804.53;4993444;28;19932;-52
2023/10/19 08:15:17;;;;;;;;;;;18.00;64.70;;;12.70;100.00;93803.72;4980995;28;19914;-56
2023/10/19 08:17:46;;;;;;;;;;;18.20;64.50;;;12.88;100.00;93799.09;4994370;28;19917;-51
2023/10/19 08:20:22;;;;;;;;;;;18.50;64.30;;;13.01;100.00;93794.63;4978466;28;19910;-54
2023/10/19 08:22:53;;;;;;;;;;;18.70;64.20;;;13.23;100.00;93795.44;4994206;28;20364;-50
2023/10/19 08:25:20;;;;;;;;;;;18.90;64.20;;;13.44;100.00;93780.22;4989181;28;19917;-53
2023/10/19 08:27:50;;;;;;;;;;;19.00;64.00;;;13.67;100.00;93783.34;4988062;28;19917;-53
2023/10/19 08:30:20;;;;;;;;;;;19.30;64.00;;;13.83;100.00;93773.63;4994015;28;19909;-50
2023/10/19 08:32:47;;;;;;;;;;;19.50;63.80;;;14.01;100.00;93774.25;4984916;28;19909;-52
2023/10/19 08:35:25;;;;;;;;;;;19.60;63.50;;;14.09;100.00;93769.91;4992065;28;19921;-49
2023/10/19 08:37:52;;;;;;;;;;;19.80;63.30;;;14.22;100.00;93779.53;4984045;28;20060;-52
2023/10/19 08:40:19;;;;;;;;;;;19.90;62.90;;;14.34;100.00;93774.22;4994149;28;19909;-48
2023/10/19 08:42:46;;;;;;;;;;;20.10;62.70;;;14.47;100.00;93772.34;4991854;28;19909;-51
2023/10/19 08:45:14;;;;;;;;;;;20.20;62.50;;;14.56;100.00;93778.41;4987976;28;19917;-55
2023/10/19 08:47:59;;;;;;;;;;;20.20;62.30;;;14.62;100.00;93788.94;4993223;28;20368;-53
2023/10/19 08:50:34;;;;;;;;;;;20.30;62.10;;;14.62;100.00;93787.03;4989284;28;19909;-53
2023/10/19 08:53:08;;;;;;;;;;;20.40;62.00;;;14.66;100.00;93782.56;4984312;28;19914;-52
2023/10/19 08:55:34;;;;;;;;;;;20.40;61.80;;;14.64;100.00;93792.06;4975017;28;20308;-55
2023/10/19 08:58:04;;;;;;;;;;;20.50;61.70;;;14.75;100.00;93788.59;4981542;28;19913;-54
2023/10/19 09:00:47;;;;;;;;;;;20.60;62.30;;;14.88;100.00;93785.91;4978859;28;20387;-54
2023/10/19 09:03:13;;;;;;;;;;;20.80;61.40;;;15.04;100.00;93792.97;4970168;28;19914;-53
2023/10/19 09:05:40;;;;;;;;;;;21.00;61.10;;;15.24;100.00;93790.50;4971375;28;19948;-54
2023/10/19 09:08:07;;;;;;;;;;;21.30;61.20;;;15.37;100.00;93788.59;4972007;28;20487;-51
2023/10/19 09:10:36;;;;;;;;;;;21.40;60.90;;;15.51;100.00;93778.25;4972994;28;19963;-54
2023/10/19 09:13:09;;;;;;;;;;;21.50;60.60;;;15.66;100.00;93771.41;4980298;28;19963;-56
2023/10/19 09:15:39;;;;;;;;;;;21.60;60.60;;;15.79;100.00;93762.22;4986987;28;19914;-56
2023/10/19 09:18:22;;;;;;;;;;;21.60;60.50;;;15.73;99.69;93752.84;4970621;28;20335;-54
2023/10/19 09:20:55;;;;;;;;;;;21.70;60.40;;;15.72;100.00;93732.50;4980410;28;20423;-54
2023/10/19 09:23:29;;;;;;;;;;;21.70;60.20;;;15.77;100.00;93731.50;4992846;28;19952;-56
2023/10/19 09:26:07;;;;;;;;;;;21.80;60.00;;;15.71;99.32;93723.69;4981263;28;20335;-56
2023/10/19 09:28:36;;;;;;;;;;;21.90;59.80;;;15.88;99.90;93717.22;4968894;28;20020;-56
2023/10/19 09:31:03;;;;;;;;;;;22.00;59.70;;;16.13;99.34;93717.88;4989659;28;19916;-56
2023/10/19 09:33:33;;;;;;;;;;;22.20;59.60;;;16.47;98.62;93714.88;4992588;28;19909;-57
2023/10/19 09:36:04;;;;;;;;;;;22.60;59.50;;;16.84;96.78;93705.44;4993109;28;19913;-52
2023/10/19 09:38:31;;;;;;;;;;;23.20;59.40;;;16.77;92.00;93702.59;4979350;28;19940;-56
2023/10/19 09:41:00;;;;;;;;;;;23.60;59.00;;;17.30;91.75;93705.69;4977972;28;20337;-57
2023/10/19 09:43:42;;;;;;;;;;;23.90;58.80;;;17.60;90.45;93705.13;4985381;28;19957;-53
2023/10/19 09:46:13;;;;;;;;;;;24.20;58.80;;;17.95;85.15;93709.69;4999532;28;19929;-53
2023/10/19 09:48:50;;;;;;;;;;;24.40;58.60;;;18.18;82.49;93715.91;4988604;28;19932;-55
2023/10/19 09:51:19;;;;;;;;;;;24.50;58.30;;;18.49;83.11;93716.84;4990580;28;19910;-49
2023/10/19 09:54:22;;;;;;;;;;;24.80;58.10;;;18.80;84.88;93721.19;4981696;28;19921;-54
2023/10/19 09:56:57;;;;;;;;;;;25.00;57.80;;;18.93;83.25;93719.88;4969625;28;19914;-51
2023/10/19 09:59:50;;;;;;;;;;;25.30;57.60;;;18.84;83.17;93715.88;4989308;28;19932;-53
2023/10/19 10:02:21;;;;;;;;;;;25.40;57.20;;;18.85;84.16;93712.03;4974729;28;19909;-54
2023/10/19 10:04:48;;;;;;;;;;;25.40;56.90;;;18.91;81.96;93708.66;4992087;28;20299;-53
2023/10/19 10:07:16;;;;;;;;;;;25.60;56.70;;;19.07;81.86;93708.50;4989717;28;19913;-53
2023/10/19 10:09:46;;;;;;;;;;;25.80;56.50;;;19.35;82.21;93707.38;4991969;28;20303;-50
2023/10/19 10:12:29;;;;;;;;;;;26.10;56.30;;;19.64;79.75;93701.22;4992372;28;20330;-52
2023/10/19 10:15:07;;;;;;;;;;;26.60;56.00;;;20.15;76.83;93710.69;4985886;28;19940;-53
2023/10/19 10:17:37;;;;;;;;;;;27.20;55.60;;;20.61;74.42;93701.47;4992768;28;19913;-55
2023/10/19 10:20:17;;;;;;;;;;;28.10;55.30;;;21.27;73.74;93705.06;4982952;28;19917;-56
2023/10/19 10:22:43;;;;;;;;;;;28.90;54.90;;;21.84;68.38;93688.31;4991440;28;20024;-54
2023/10/19 10:25:30;;;;;;;;;;;29.60;54.60;;;22.30;64.05;93687.72;4987122;28;19910;-52
2023/10/19 10:27:57;;;;;;;;;;;30.30;54.00;;;22.79;61.43;93689.72;4984911;28;19909;-53
2023/10/19 10:30:22;;;;;;;;;;;30.70;53.40;;;23.19;59.97;93687.78;4991495;28;20017;-52
2023/10/19 10:32:59;;;;;;;;;;;31.10;52.90;;;23.46;59.41;93695.47;4983465;28;19909;-54
2023/10/19 10:35:38;;;;;;;;;;;31.30;52.10;;;23.83;57.68;93700.44;4975253;28;19914;-53
2023/10/19 10:38:14;;;;;;;;;;;31.60;51.70;;;23.67;57.02;93689.22;4970472;28;20445;-54
2023/10/19 10:40:50;;;;;;;;;;;31.80;51.30;;;23.55;58.34;93693.13;4991635;28;19916;-52
2023/10/19 10:43:18;;;;;;;;;;;32.00;50.90;;;23.78;56.99;93692.69;4989342;28;19961;-50
2023/10/19 10:45:44;;;;;;;;;;;32.30;50.70;;;24.22;55.80;93694.03;4991578;28;19928;-53
2023/10/19 10:48:25;;;;;;;;;;;32.70;50.50;;;24.45;56.11;93685.41;4991623;28;20384;-56
2023/10/19 10:50:51;;;;;;;;;;;33.00;50.30;;;24.63;55.36;93677.88;4983112;28;19920;-57
2023/10/19 10:53:17;;;;;;;;;;;33.40;50.00;;;24.79;53.93;93674.66;4991678;28;19910;-55
2023/10/19 10:55:43;;;;;;;;;;;33.50;49.40;;;24.81;53.22;93666.06;4982841;28;19921;-52
2023/10/19 10:58:15;;;;;;;;;;;33.50;49.00;;;24.58;54.01;93664.69;4991377;28;19910;-56
2023/10/19 11:00:51;;;;;;;;;;;33.40;48.80;;;24.39;54.64;93659.75;4989820;28;20015;-53
2023/10/19 11:03:17;;;;;;;;;;;33.10;48.60;;;24.32;55.48;93655.13;4979503;28;20359;-56
2023/10/19 11:05:46;;;;;;;;;;;32.80;48.50;;;24.17;56.38;93649.00;4990895;28;20062;-56
2023/10/19 11:08:20;;;;;;;;;;;32.50;48.50;;;24.04;56.11;93641.69;4968983;28;19910;-56
2023/10/19 11:10:48;;;;;;;;;;;32.20;48.20;;;23.84;56.81;93641.41;4973625;28;19909;-54
2023/10/19 11:13:22;;;;;;;;;;;31.80;47.80;;;23.58;57.28;93632.56;4990065;28;20371;-54
2023/10/19 11:15:54;;;;;;;;;;;31.40;47.70;;;23.47;57.33;93626.38;4960282;28;20292;-51
2023/10/19 11:18:42;;;;;;;;;;;31.10;47.60;;;23.20;58.51;93620.66;4972206;28;19949;-51
2023/10/19 11:21:14;;;;;;;;;;;30.70;47.60;;;22.99;57.78;93621.47;4965178;28;19910;-52
2023/10/19 11:23:49;;;;;;;;;;;30.40;47.80;;;22.00;60.44;93620.22;4960400;28;19910;-50
2023/10/19 11:26:20;;;;;;;;;;;29.90;47.80;;;21.93;60.57;93626.41;4971881;28;19936;-50
2023/10/19 11:28:54;;;;;;;;;;;29.40;47.90;;;20.89;64.15;93630.56;4969032;28;20327;-49
2023/10/19 11:31:24;;;;;;;;;;;28.90;48.00;;;20.80;65.21;93617.38;4968698;28;19909;-52
2023/10/19 11:33:53;;;;;;;;;;;28.50;48.10;;;20.37;66.53;93608.94;4972032;28;19960;-55
2023/10/19 11:36:20;;;;;;;;;;;28.10;48.30;;;20.20;66.90;93606.84;4967724;28;19914;-52
2023/10/19 11:38:51;;;;;;;;;;;27.70;48.30;;;19.87;68.72;93600.38;4971490;28;19972;-49
2023/10/19 11:41:17;;;;;;;;;;;27.30;48.40;;;19.49;70.21;93596.88;4967624;28;20365;-50
2023/10/19 11:43:46;;;;;;;;;;;27.00;48.60;;;19.06;71.81;93599.03;4967447;28;19957;-52
2023/10/19 11:46:14;;;;;;;;;;;26.70;48.70;;;18.77;73.57;93600.59;4972295;28;20008;-53
2023/10/19 11:48:42;;;;;;;;;;;26.30;48.70;;;18.67;74.99;93601.16;4972125;28;19937;-55
2023/10/19 11:51:10;;;;;;;;;;;26.10;49.10;;;18.56;77.43;93595.63;4964100;28;19997;-56
2023/10/19 11:53:38;;;;;;;;;;;26.00;49.30;;;18.62;75.78;93599.56;4966736;28;19917;-52
2023/10/19 11:56:12;;;;;;;;;;;26.00;49.40;;;18.71;76.57;93599.31;4963954;28;19975;-55
2023/10/19 11:58:39;;;;;;;;;;;26.10;49.50;;;18.95;75.15;93603.50;4968963;28;20008;-54
2023/10/19 12:01:12;;;;;;;;;;;26.00;49.60;;;19.11;74.09;93595.22;4963669;28;19948;-55
2023/10/19 12:03:40;;;;;;;;;;;26.00;49.70;;;19.29;73.30;93592.75;4971661;28;19968;-52
2023/10/19 12:06:12;;;;;;;;;;;25.90;49.80;;;19.43;73.44;93592.94;4967078;28;20037;-50
2023/10/19 12:08:40;;;;;;;;;;;25.80;49.90;;;19.55;72.60;93603.47;4967528;28;19913;-50
2023/10/19 12:11:16;;;;;;;;;;;25.80;50.10;;;19.70;72.16;93590.16;4966981;28;19997;-54